sensor_id;sensor_type;location;lat;lon;timestamp;P1;durP1;ratioP1;P2;durP2;ratioP2
40284;SDS011;25997;50.214;19.354;2023-11-21T00:00:41;9.35;;;7.55;;
40284;SDS011;25997;50.214;19.354;2023-11-21T00:03:44;9.88;;;6.63;;
40284;SDS011;25997;50.214;19.354;2023-11-21T00:06:47;11.57;;;7.93;;
40284;SDS011;25997;50.214;19.354;2023-11-21T00:09:49;8.57;;;6.35;;
40284;SDS011;25997;50.214;19.354;2023-11-21T00:12:53;9.68;;;6.75;;
40284;SDS011;25997;50.214;19.354;2023-11-21T00:15:56;8.70;;;7.18;;
40284;SDS011;25997;50.214;19.354;2023-11-21T00:18:59;8.85;;;7.13;;
40284;SDS011;25997;50.214;19.354;2023-11-21T00:22:02;10.43;;;9.10;;
40284;SDS011;25997;50.214;19.354;2023-11-21T00:25:06;8.18;;;6.63;;
40284;SDS011;25997;50.214;19.354;2023-11-21T00:28:11;9.65;;;6.75;;
40284;SDS011;25997;50.214;19.354;2023-11-21T00:31:13;9.23;;;7.03;;
40284;SDS011;25997;50.214;19.354;2023-11-21T00:34:16;9.75;;;8.00;;
40284;SDS011;25997;50.214;19.354;2023-11-21T00:37:18;9.95;;;7.22;;
40284;SDS011;25997;50.214;19.354;2023-11-21T00:40:22;10.30;;;7.43;;
40284;SDS011;25997;50.214;19.354;2023-11-21T00:43:26;12.45;;;6.38;;
40284;SDS011;25997;50.214;19.354;2023-11-21T00:46:30;8.63;;;6.30;;
40284;SDS011;25997;50.214;19.354;2023-11-21T00:49:33;10.27;;;6.60;;
40284;SDS011;25997;50.214;19.354;2023-11-21T00:52:35;9.93;;;7.97;;
40284;SDS011;25997;50.214;19.354;2023-11-21T00:55:38;8.65;;;5.78;;
40284;SDS011;25997;50.214;19.354;2023-11-21T00:58:42;7.32;;;5.25;;
40284;SDS011;25997;50.214;19.354;2023-11-21T01:01:50;8.30;;;6.53;;
40284;SDS011;25997;50.214;19.354;2023-11-21T01:04:53;8.98;;;6.10;;
40284;SDS011;25997;50.214;19.354;2023-11-21T01:07:55;8.90;;;6.25;;
40284;SDS011;25997;50.214;19.354;2023-11-21T01:10:58;13.15;;;8.10;;
40284;SDS011;25997;50.214;19.354;2023-11-21T01:14:03;8.88;;;5.60;;
40284;SDS011;25997;50.214;19.354;2023-11-21T01:17:07;11.93;;;6.72;;
40284;SDS011;25997;50.214;19.354;2023-11-21T01:20:10;10.02;;;7.07;;
40284;SDS011;25997;50.214;19.354;2023-11-21T01:23:14;11.07;;;7.93;;
40284;SDS011;25997;50.214;19.354;2023-11-21T01:26:16;9.18;;;6.65;;
40284;SDS011;25997;50.214;19.354;2023-11-21T01:29:20;10.90;;;7.78;;
40284;SDS011;25997;50.214;19.354;2023-11-21T01:32:23;11.32;;;7.53;;
40284;SDS011;25997;50.214;19.354;2023-11-21T01:35:26;10.30;;;7.85;;
40284;SDS011;25997;50.214;19.354;2023-11-21T01:38:28;8.38;;;6.82;;
40284;SDS011;25997;50.214;19.354;2023-11-21T01:41:31;9.60;;;7.80;;
40284;SDS011;25997;50.214;19.354;2023-11-21T01:44:35;8.57;;;7.68;;
40284;SDS011;25997;50.214;19.354;2023-11-21T01:47:37;8.73;;;6.30;;
40284;SDS011;25997;50.214;19.354;2023-11-21T01:50:42;9.70;;;7.03;;
40284;SDS011;25997;50.214;19.354;2023-11-21T01:53:45;8.23;;;7.32;;
40284;SDS011;25997;50.214;19.354;2023-11-21T01:56:48;8.98;;;6.68;;
40284;SDS011;25997;50.214;19.354;2023-11-21T01:59:52;9.27;;;6.85;;
40284;SDS011;25997;50.214;19.354;2023-11-21T02:02:56;7.50;;;5.40;;
40284;SDS011;25997;50.214;19.354;2023-11-21T02:06:00;8.48;;;7.20;;
40284;SDS011;25997;50.214;19.354;2023-11-21T02:09:02;9.55;;;6.53;;
40284;SDS011;25997;50.214;19.354;2023-11-21T02:12:05;7.38;;;6.05;;
40284;SDS011;25997;50.214;19.354;2023-11-21T02:15:11;9.48;;;6.38;;
40284;SDS011;25997;50.214;19.354;2023-11-21T02:18:17;8.23;;;6.03;;
40284;SDS011;25997;50.214;19.354;2023-11-21T02:21:20;7.40;;;5.90;;
40284;SDS011;25997;50.214;19.354;2023-11-21T02:24:24;8.55;;;6.72;;
40284;SDS011;25997;50.214;19.354;2023-11-21T02:27:27;10.10;;;6.57;;
40284;SDS011;25997;50.214;19.354;2023-11-21T02:30:31;8.60;;;6.75;;
40284;SDS011;25997;50.214;19.354;2023-11-21T02:33:33;10.02;;;7.18;;
40284;SDS011;25997;50.214;19.354;2023-11-21T02:36:36;8.88;;;7.03;;
40284;SDS011;25997;50.214;19.354;2023-11-21T02:39:41;6.78;;;5.13;;
40284;SDS011;25997;50.214;19.354;2023-11-21T02:42:43;8.13;;;5.35;;
40284;SDS011;25997;50.214;19.354;2023-11-21T02:45:48;7.18;;;5.28;;
40284;SDS011;25997;50.214;19.354;2023-11-21T02:48:50;7.20;;;5.75;;
40284;SDS011;25997;50.214;19.354;2023-11-21T02:51:54;6.90;;;5.88;;
40284;SDS011;25997;50.214;19.354;2023-11-21T02:54:58;7.22;;;5.55;;
40284;SDS011;25997;50.214;19.354;2023-11-21T02:58:01;6.25;;;5.65;;
40284;SDS011;25997;50.214;19.354;2023-11-21T03:01:04;9.07;;;5.28;;
40284;SDS011;25997;50.214;19.354;2023-11-21T03:04:08;5.47;;;4.13;;
40284;SDS011;25997;50.214;19.354;2023-11-21T03:07:10;6.90;;;4.50;;
40284;SDS011;25997;50.214;19.354;2023-11-21T03:10:15;7.65;;;5.85;;
40284;SDS011;25997;50.214;19.354;2023-11-21T03:13:18;7.05;;;4.68;;
40284;SDS011;25997;50.214;19.354;2023-11-21T03:16:20;7.57;;;4.47;;
40284;SDS011;25997;50.214;19.354;2023-11-21T03:19:23;6.72;;;4.85;;
40284;SDS011;25997;50.214;19.354;2023-11-21T03:22:26;7.35;;;5.10;;
40284;SDS011;25997;50.214;19.354;2023-11-21T03:25:30;8.43;;;6.55;;
40284;SDS011;25997;50.214;19.354;2023-11-21T03:28:32;8.60;;;5.55;;
40284;SDS011;25997;50.214;19.354;2023-11-21T03:31:35;9.02;;;6.03;;
40284;SDS011;25997;50.214;19.354;2023-11-21T03:34:52;8.23;;;5.90;;
40284;SDS011;25997;50.214;19.354;2023-11-21T03:37:56;8.77;;;5.97;;
40284;SDS011;25997;50.214;19.354;2023-11-21T03:41:00;8.60;;;6.22;;
40284;SDS011;25997;50.214;19.354;2023-11-21T03:44:03;8.60;;;5.28;;
40284;SDS011;25997;50.214;19.354;2023-11-21T03:47:06;7.35;;;6.35;;
40284;SDS011;25997;50.214;19.354;2023-11-21T03:50:09;10.40;;;6.80;;
40284;SDS011;25997;50.214;19.354;2023-11-21T03:53:11;7.85;;;7.05;;
40284;SDS011;25997;50.214;19.354;2023-11-21T03:56:15;8.68;;;5.30;;
40284;SDS011;25997;50.214;19.354;2023-11-21T03:59:18;8.63;;;6.20;;
40284;SDS011;25997;50.214;19.354;2023-11-21T04:02:20;8.30;;;6.25;;
40284;SDS011;25997;50.214;19.354;2023-11-21T04:05:23;9.82;;;6.47;;
40284;SDS011;25997;50.214;19.354;2023-11-21T04:08:26;9.15;;;5.72;;
40284;SDS011;25997;50.214;19.354;2023-11-21T04:11:30;12.32;;;7.45;;
40284;SDS011;25997;50.214;19.354;2023-11-21T04:14:32;15.23;;;12.38;;
40284;SDS011;25997;50.214;19.354;2023-11-21T04:17:35;8.70;;;6.53;;
40284;SDS011;25997;50.214;19.354;2023-11-21T04:20:37;9.20;;;6.75;;
40284;SDS011;25997;50.214;19.354;2023-11-21T04:23:40;9.45;;;5.55;;
40284;SDS011;25997;50.214;19.354;2023-11-21T04:26:44;11.05;;;9.02;;
40284;SDS011;25997;50.214;19.354;2023-11-21T04:29:47;8.77;;;6.63;;
40284;SDS011;25997;50.214;19.354;2023-11-21T04:32:49;9.35;;;5.13;;
40284;SDS011;25997;50.214;19.354;2023-11-21T04:35:52;11.40;;;5.72;;
40284;SDS011;25997;50.214;19.354;2023-11-21T04:38:55;11.43;;;8.77;;
40284;SDS011;25997;50.214;19.354;2023-11-21T04:41:59;13.48;;;9.35;;
40284;SDS011;25997;50.214;19.354;2023-11-21T04:45:01;11.98;;;8.40;;
40284;SDS011;25997;50.214;19.354;2023-11-21T04:48:08;10.18;;;6.10;;
40284;SDS011;25997;50.214;19.354;2023-11-21T04:51:11;11.52;;;7.93;;
40284;SDS011;25997;50.214;19.354;2023-11-21T04:54:13;15.25;;;7.47;;
40284;SDS011;25997;50.214;19.354;2023-11-21T04:57:17;9.57;;;5.60;;
40284;SDS011;25997;50.214;19.354;2023-11-21T05:00:20;8.32;;;5.07;;
40284;SDS011;25997;50.214;19.354;2023-11-21T05:03:23;14.65;;;6.68;;
40284;SDS011;25997;50.214;19.354;2023-11-21T05:06:25;11.00;;;6.32;;
40284;SDS011;25997;50.214;19.354;2023-11-21T05:09:28;6.63;;;3.72;;
40284;SDS011;25997;50.214;19.354;2023-11-21T05:12:34;7.32;;;4.85;;
40284;SDS011;25997;50.214;19.354;2023-11-21T05:15:38;10.95;;;6.78;;
40284;SDS011;25997;50.214;19.354;2023-11-21T05:18:41;10.52;;;5.75;;
40284;SDS011;25997;50.214;19.354;2023-11-21T05:21:43;9.00;;;6.28;;
40284;SDS011;25997;50.214;19.354;2023-11-21T05:24:47;9.27;;;7.93;;
40284;SDS011;25997;50.214;19.354;2023-11-21T05:27:50;8.32;;;5.30;;
40284;SDS011;25997;50.214;19.354;2023-11-21T05:30:53;7.75;;;5.70;;
40284;SDS011;25997;50.214;19.354;2023-11-21T05:33:56;11.07;;;6.65;;
40284;SDS011;25997;50.214;19.354;2023-11-21T05:36:59;9.90;;;7.60;;
40284;SDS011;25997;50.214;19.354;2023-11-21T05:40:01;7.55;;;6.07;;
40284;SDS011;25997;50.214;19.354;2023-11-21T05:43:08;18.00;;;10.50;;
40284;SDS011;25997;50.214;19.354;2023-11-21T05:46:10;27.58;;;16.45;;
40284;SDS011;25997;50.214;19.354;2023-11-21T05:49:13;12.68;;;10.27;;
40284;SDS011;25997;50.214;19.354;2023-11-21T05:52:17;26.58;;;16.17;;
40284;SDS011;25997;50.214;19.354;2023-11-21T05:55:19;21.58;;;13.43;;
40284;SDS011;25997;50.214;19.354;2023-11-21T05:58:27;14.23;;;9.35;;
40284;SDS011;25997;50.214;19.354;2023-11-21T06:01:30;9.88;;;8.40;;
40284;SDS011;25997;50.214;19.354;2023-11-21T06:04:32;16.50;;;10.52;;
40284;SDS011;25997;50.214;19.354;2023-11-21T06:07:35;10.82;;;7.55;;
40284;SDS011;25997;50.214;19.354;2023-11-21T06:10:38;11.68;;;9.38;;
40284;SDS011;25997;50.214;19.354;2023-11-21T06:13:42;9.25;;;8.20;;
40284;SDS011;25997;50.214;19.354;2023-11-21T06:16:45;12.35;;;9.65;;
40284;SDS011;25997;50.214;19.354;2023-11-21T06:19:48;11.82;;;9.05;;
40284;SDS011;25997;50.214;19.354;2023-11-21T06:22:51;11.15;;;8.68;;
40284;SDS011;25997;50.214;19.354;2023-11-21T06:25:54;11.30;;;8.45;;
40284;SDS011;25997;50.214;19.354;2023-11-21T06:28:59;9.73;;;8.23;;
40284;SDS011;25997;50.214;19.354;2023-11-21T06:32:03;10.10;;;7.88;;
40284;SDS011;25997;50.214;19.354;2023-11-21T06:35:07;11.23;;;9.45;;
40284;SDS011;25997;50.214;19.354;2023-11-21T06:38:10;11.20;;;8.85;;
40284;SDS011;25997;50.214;19.354;2023-11-21T06:41:13;11.23;;;8.75;;
40284;SDS011;25997;50.214;19.354;2023-11-21T06:44:18;14.57;;;10.40;;
40284;SDS011;25997;50.214;19.354;2023-11-21T06:47:21;13.85;;;10.40;;
40284;SDS011;25997;50.214;19.354;2023-11-21T06:50:25;10.07;;;8.68;;
40284;SDS011;25997;50.214;19.354;2023-11-21T06:53:28;18.50;;;15.45;;
40284;SDS011;25997;50.214;19.354;2023-11-21T06:56:30;12.02;;;9.60;;
40284;SDS011;25997;50.214;19.354;2023-11-21T06:59:34;11.77;;;7.95;;
40284;SDS011;25997;50.214;19.354;2023-11-21T07:02:37;11.55;;;8.55;;
40284;SDS011;25997;50.214;19.354;2023-11-21T07:05:40;12.00;;;7.32;;
40284;SDS011;25997;50.214;19.354;2023-11-21T07:08:42;13.77;;;7.47;;
40284;SDS011;25997;50.214;19.354;2023-11-21T07:11:45;12.43;;;9.50;;
40284;SDS011;25997;50.214;19.354;2023-11-21T07:14:50;7.80;;;6.28;;
40284;SDS011;25997;50.214;19.354;2023-11-21T07:17:53;9.70;;;8.00;;
40284;SDS011;25997;50.214;19.354;2023-11-21T07:20:55;14.25;;;8.93;;
40284;SDS011;25997;50.214;19.354;2023-11-21T07:23:59;15.75;;;14.18;;
40284;SDS011;25997;50.214;19.354;2023-11-21T07:27:02;10.20;;;8.80;;
40284;SDS011;25997;50.214;19.354;2023-11-21T07:30:07;13.07;;;10.10;;
40284;SDS011;25997;50.214;19.354;2023-11-21T07:33:11;15.50;;;11.90;;
40284;SDS011;25997;50.214;19.354;2023-11-21T07:36:13;14.18;;;12.20;;
40284;SDS011;25997;50.214;19.354;2023-11-21T07:39:16;13.75;;;10.70;;
40284;SDS011;25997;50.214;19.354;2023-11-21T07:42:19;11.48;;;10.02;;
40284;SDS011;25997;50.214;19.354;2023-11-21T07:45:24;14.70;;;11.30;;
40284;SDS011;25997;50.214;19.354;2023-11-21T07:48:28;14.48;;;11.05;;
40284;SDS011;25997;50.214;19.354;2023-11-21T07:51:31;15.30;;;10.68;;
40284;SDS011;25997;50.214;19.354;2023-11-21T07:54:34;13.45;;;11.23;;
40284;SDS011;25997;50.214;19.354;2023-11-21T07:57:36;14.25;;;11.00;;
40284;SDS011;25997;50.214;19.354;2023-11-21T08:00:40;12.95;;;11.02;;
40284;SDS011;25997;50.214;19.354;2023-11-21T08:03:43;11.05;;;9.70;;
40284;SDS011;25997;50.214;19.354;2023-11-21T08:06:46;11.57;;;10.38;;
40284;SDS011;25997;50.214;19.354;2023-11-21T08:09:48;12.15;;;10.20;;
40284;SDS011;25997;50.214;19.354;2023-11-21T08:12:51;14.52;;;11.48;;
40284;SDS011;25997;50.214;19.354;2023-11-21T08:15:55;15.32;;;11.10;;
40284;SDS011;25997;50.214;19.354;2023-11-21T08:19:02;14.30;;;12.80;;
40284;SDS011;25997;50.214;19.354;2023-11-21T08:22:05;16.77;;;12.95;;
40284;SDS011;25997;50.214;19.354;2023-11-21T08:25:09;15.98;;;13.10;;
40284;SDS011;25997;50.214;19.354;2023-11-21T08:28:11;16.73;;;13.50;;
40284;SDS011;25997;50.214;19.354;2023-11-21T08:31:16;15.57;;;11.32;;
40284;SDS011;25997;50.214;19.354;2023-11-21T08:34:19;12.55;;;11.15;;
40284;SDS011;25997;50.214;19.354;2023-11-21T08:37:22;18.38;;;14.68;;
40284;SDS011;25997;50.214;19.354;2023-11-21T08:40:24;14.77;;;13.15;;
40284;SDS011;25997;50.214;19.354;2023-11-21T08:43:27;17.80;;;14.00;;
40284;SDS011;25997;50.214;19.354;2023-11-21T08:46:31;18.13;;;13.70;;
40284;SDS011;25997;50.214;19.354;2023-11-21T08:49:34;21.23;;;17.42;;
40284;SDS011;25997;50.214;19.354;2023-11-21T08:52:37;20.67;;;16.52;;
40284;SDS011;25997;50.214;19.354;2023-11-21T08:55:39;15.60;;;12.70;;
40284;SDS011;25997;50.214;19.354;2023-11-21T08:58:42;12.75;;;11.30;;
40284;SDS011;25997;50.214;19.354;2023-11-21T09:01:46;13.73;;;12.15;;
40284;SDS011;25997;50.214;19.354;2023-11-21T09:04:49;12.27;;;10.65;;
40284;SDS011;25997;50.214;19.354;2023-11-21T09:07:53;11.80;;;10.60;;
40284;SDS011;25997;50.214;19.354;2023-11-21T09:10:55;15.73;;;10.90;;
40284;SDS011;25997;50.214;19.354;2023-11-21T09:13:58;14.80;;;11.43;;
40284;SDS011;25997;50.214;19.354;2023-11-21T09:17:02;15.48;;;12.65;;
40284;SDS011;25997;50.214;19.354;2023-11-21T09:20:11;14.05;;;9.90;;
40284;SDS011;25997;50.214;19.354;2023-11-21T09:23:15;14.73;;;10.75;;
40284;SDS011;25997;50.214;19.354;2023-11-21T09:26:18;15.68;;;12.10;;
40284;SDS011;25997;50.214;19.354;2023-11-21T09:29:21;18.05;;;12.23;;
40284;SDS011;25997;50.214;19.354;2023-11-21T09:32:25;16.30;;;12.98;;
40284;SDS011;25997;50.214;19.354;2023-11-21T09:35:28;16.60;;;13.20;;
40284;SDS011;25997;50.214;19.354;2023-11-21T09:38:31;16.40;;;12.50;;
40284;SDS011;25997;50.214;19.354;2023-11-21T09:41:34;16.15;;;12.30;;
40284;SDS011;25997;50.214;19.354;2023-11-21T09:44:45;21.80;;;16.38;;
40284;SDS011;25997;50.214;19.354;2023-11-21T09:47:57;15.43;;;13.05;;
40284;SDS011;25997;50.214;19.354;2023-11-21T09:51:00;14.77;;;12.48;;
40284;SDS011;25997;50.214;19.354;2023-11-21T09:54:04;15.40;;;11.35;;
40284;SDS011;25997;50.214;19.354;2023-11-21T09:57:09;18.23;;;12.65;;
40284;SDS011;25997;50.214;19.354;2023-11-21T10:00:13;13.40;;;10.93;;
40284;SDS011;25997;50.214;19.354;2023-11-21T10:03:20;13.27;;;10.95;;
40284;SDS011;25997;50.214;19.354;2023-11-21T10:06:22;18.05;;;14.80;;
40284;SDS011;25997;50.214;19.354;2023-11-21T10:09:27;19.55;;;16.50;;
40284;SDS011;25997;50.214;19.354;2023-11-21T10:12:30;18.70;;;13.80;;
40284;SDS011;25997;50.214;19.354;2023-11-21T10:15:35;21.98;;;17.85;;
40284;SDS011;25997;50.214;19.354;2023-11-21T10:18:40;34.85;;;26.95;;
40284;SDS011;25997;50.214;19.354;2023-11-21T10:21:43;19.80;;;17.90;;
40284;SDS011;25997;50.214;19.354;2023-11-21T10:24:45;18.90;;;13.80;;
40284;SDS011;25997;50.214;19.354;2023-11-21T10:27:48;34.30;;;31.02;;
40284;SDS011;25997;50.214;19.354;2023-11-21T10:30:52;14.77;;;11.90;;
40284;SDS011;25997;50.214;19.354;2023-11-21T10:33:56;14.93;;;10.15;;
40284;SDS011;25997;50.214;19.354;2023-11-21T10:37:11;13.20;;;10.40;;
40284;SDS011;25997;50.214;19.354;2023-11-21T10:40:16;13.38;;;11.80;;
40284;SDS011;25997;50.214;19.354;2023-11-21T10:43:19;31.23;;;27.50;;
40284;SDS011;25997;50.214;19.354;2023-11-21T10:46:22;14.18;;;12.70;;
40284;SDS011;25997;50.214;19.354;2023-11-21T10:49:28;15.20;;;12.23;;
40284;SDS011;25997;50.214;19.354;2023-11-21T10:52:30;11.75;;;8.20;;
40284;SDS011;25997;50.214;19.354;2023-11-21T10:55:34;9.90;;;7.55;;
40284;SDS011;25997;50.214;19.354;2023-11-21T10:58:39;14.88;;;9.68;;
40284;SDS011;25997;50.214;19.354;2023-11-21T11:01:42;11.57;;;8.40;;
40284;SDS011;25997;50.214;19.354;2023-11-21T11:04:49;17.40;;;9.82;;
40284;SDS011;25997;50.214;19.354;2023-11-21T11:07:56;10.68;;;7.28;;
40284;SDS011;25997;50.214;19.354;2023-11-21T11:14:07;8.30;;;6.80;;
40284;SDS011;25997;50.214;19.354;2023-11-21T11:17:12;12.63;;;8.65;;
40284;SDS011;25997;50.214;19.354;2023-11-21T11:20:18;14.02;;;8.32;;
40284;SDS011;25997;50.214;19.354;2023-11-21T11:23:35;13.20;;;9.10;;
40284;SDS011;25997;50.214;19.354;2023-11-21T11:26:50;12.13;;;8.77;;
40284;SDS011;25997;50.214;19.354;2023-11-21T11:30:07;9.18;;;6.40;;
40284;SDS011;25997;50.214;19.354;2023-11-21T11:33:21;10.38;;;6.72;;
40284;SDS011;25997;50.214;19.354;2023-11-21T11:39:41;10.07;;;6.47;;
40284;SDS011;25997;50.214;19.354;2023-11-21T11:42:54;10.25;;;7.60;;
40284;SDS011;25997;50.214;19.354;2023-11-21T11:45:59;16.13;;;9.88;;
40284;SDS011;25997;50.214;19.354;2023-11-21T11:49:05;12.73;;;10.23;;
40284;SDS011;25997;50.214;19.354;2023-11-21T11:55:41;9.98;;;8.45;;
40284;SDS011;25997;50.214;19.354;2023-11-21T11:58:43;13.02;;;9.10;;
40284;SDS011;25997;50.214;19.354;2023-11-21T12:01:48;8.90;;;6.63;;
40284;SDS011;25997;50.214;19.354;2023-11-21T12:04:55;13.25;;;10.52;;
40284;SDS011;25997;50.214;19.354;2023-11-21T12:08:00;9.23;;;6.60;;
40284;SDS011;25997;50.214;19.354;2023-11-21T12:11:04;9.00;;;6.47;;
40284;SDS011;25997;50.214;19.354;2023-11-21T12:14:07;5.45;;;4.90;;
40284;SDS011;25997;50.214;19.354;2023-11-21T12:17:10;9.68;;;7.30;;
40284;SDS011;25997;50.214;19.354;2023-11-21T12:20:13;10.13;;;6.60;;
40284;SDS011;25997;50.214;19.354;2023-11-21T12:23:20;8.65;;;6.43;;
40284;SDS011;25997;50.214;19.354;2023-11-21T12:26:23;11.20;;;7.63;;
40284;SDS011;25997;50.214;19.354;2023-11-21T12:29:26;8.25;;;6.65;;
40284;SDS011;25997;50.214;19.354;2023-11-21T12:32:30;10.18;;;6.47;;
40284;SDS011;25997;50.214;19.354;2023-11-21T12:35:33;6.82;;;6.13;;
40284;SDS011;25997;50.214;19.354;2023-11-21T12:38:38;11.20;;;9.95;;
40284;SDS011;25997;50.214;19.354;2023-11-21T12:41:40;18.00;;;14.18;;
40284;SDS011;25997;50.214;19.354;2023-11-21T12:44:45;17.40;;;13.13;;
40284;SDS011;25997;50.214;19.354;2023-11-21T12:47:48;9.95;;;8.18;;
40284;SDS011;25997;50.214;19.354;2023-11-21T12:50:52;9.32;;;8.02;;
40284;SDS011;25997;50.214;19.354;2023-11-21T12:53:56;9.45;;;6.85;;
40284;SDS011;25997;50.214;19.354;2023-11-21T12:56:59;9.93;;;6.93;;
40284;SDS011;25997;50.214;19.354;2023-11-21T13:00:03;10.85;;;7.22;;
40284;SDS011;25997;50.214;19.354;2023-11-21T13:03:13;7.90;;;5.53;;
40284;SDS011;25997;50.214;19.354;2023-11-21T13:06:18;9.48;;;4.95;;
40284;SDS011;25997;50.214;19.354;2023-11-21T13:09:26;8.80;;;5.07;;
40284;SDS011;25997;50.214;19.354;2023-11-21T13:12:29;8.70;;;5.53;;
40284;SDS011;25997;50.214;19.354;2023-11-21T13:15:38;9.73;;;6.72;;
40284;SDS011;25997;50.214;19.354;2023-11-21T13:18:42;10.68;;;6.78;;
40284;SDS011;25997;50.214;19.354;2023-11-21T13:21:45;9.40;;;7.57;;
40284;SDS011;25997;50.214;19.354;2023-11-21T13:24:49;9.32;;;6.68;;
40284;SDS011;25997;50.214;19.354;2023-11-21T13:27:51;11.82;;;8.05;;
40284;SDS011;25997;50.214;19.354;2023-11-21T13:30:54;16.08;;;8.52;;
40284;SDS011;25997;50.214;19.354;2023-11-21T13:33:57;11.38;;;8.00;;
40284;SDS011;25997;50.214;19.354;2023-11-21T13:37:05;9.93;;;6.75;;
40284;SDS011;25997;50.214;19.354;2023-11-21T13:40:10;14.70;;;8.52;;
40284;SDS011;25997;50.214;19.354;2023-11-21T13:43:16;10.88;;;6.63;;
40284;SDS011;25997;50.214;19.354;2023-11-21T13:46:21;6.65;;;3.97;;
40284;SDS011;25997;50.214;19.354;2023-11-21T13:49:24;9.07;;;5.88;;
40284;SDS011;25997;50.214;19.354;2023-11-21T13:52:27;7.30;;;4.70;;
40284;SDS011;25997;50.214;19.354;2023-11-21T13:55:35;12.07;;;6.55;;
40284;SDS011;25997;50.214;19.354;2023-11-21T13:58:40;8.65;;;5.70;;
40284;SDS011;25997;50.214;19.354;2023-11-21T14:01:48;7.20;;;5.45;;
40284;SDS011;25997;50.214;19.354;2023-11-21T14:04:58;8.63;;;5.45;;
40284;SDS011;25997;50.214;19.354;2023-11-21T14:08:05;12.43;;;8.73;;
40284;SDS011;25997;50.214;19.354;2023-11-21T14:11:09;10.48;;;6.55;;
40284;SDS011;25997;50.214;19.354;2023-11-21T14:14:18;12.50;;;7.50;;
40284;SDS011;25997;50.214;19.354;2023-11-21T14:17:21;8.45;;;5.72;;
40284;SDS011;25997;50.214;19.354;2023-11-21T14:20:25;8.27;;;5.20;;
40284;SDS011;25997;50.214;19.354;2023-11-21T14:23:28;9.80;;;6.15;;
40284;SDS011;25997;50.214;19.354;2023-11-21T14:26:38;9.82;;;6.57;;
40284;SDS011;25997;50.214;19.354;2023-11-21T14:29:41;9.43;;;5.50;;
40284;SDS011;25997;50.214;19.354;2023-11-21T14:32:45;9.63;;;5.85;;
40284;SDS011;25997;50.214;19.354;2023-11-21T14:35:48;10.68;;;7.30;;
40284;SDS011;25997;50.214;19.354;2023-11-21T14:38:51;9.30;;;5.90;;
40284;SDS011;25997;50.214;19.354;2023-11-21T14:41:55;7.40;;;5.40;;
40284;SDS011;25997;50.214;19.354;2023-11-21T14:45:00;40.83;;;25.80;;
40284;SDS011;25997;50.214;19.354;2023-11-21T14:48:06;11.20;;;7.50;;
40284;SDS011;25997;50.214;19.354;2023-11-21T14:51:16;8.38;;;6.00;;
40284;SDS011;25997;50.214;19.354;2023-11-21T14:54:35;12.50;;;10.10;;
40284;SDS011;25997;50.214;19.354;2023-11-21T14:57:43;20.95;;;13.32;;
40284;SDS011;25997;50.214;19.354;2023-11-21T15:00:49;10.73;;;8.52;;
40284;SDS011;25997;50.214;19.354;2023-11-21T15:03:57;13.35;;;9.15;;
40284;SDS011;25997;50.214;19.354;2023-11-21T15:07:00;15.52;;;10.07;;
40284;SDS011;25997;50.214;19.354;2023-11-21T15:10:03;16.25;;;12.18;;
40284;SDS011;25997;50.214;19.354;2023-11-21T15:13:13;58.08;;;34.45;;
40284;SDS011;25997;50.214;19.354;2023-11-21T15:16:16;24.50;;;16.33;;
40284;SDS011;25997;50.214;19.354;2023-11-21T15:19:21;18.80;;;13.30;;
40284;SDS011;25997;50.214;19.354;2023-11-21T15:22:45;22.00;;;15.57;;
40284;SDS011;25997;50.214;19.354;2023-11-21T15:25:48;18.63;;;14.18;;
40284;SDS011;25997;50.214;19.354;2023-11-21T15:28:53;20.25;;;11.85;;
40284;SDS011;25997;50.214;19.354;2023-11-21T15:31:55;16.58;;;11.52;;
40284;SDS011;25997;50.214;19.354;2023-11-21T15:34:58;20.27;;;15.70;;
40284;SDS011;25997;50.214;19.354;2023-11-21T15:38:01;13.82;;;9.15;;
40284;SDS011;25997;50.214;19.354;2023-11-21T15:41:03;15.30;;;12.95;;
40284;SDS011;25997;50.214;19.354;2023-11-21T15:44:10;17.20;;;12.73;;
40284;SDS011;25997;50.214;19.354;2023-11-21T15:47:14;18.35;;;14.50;;
40284;SDS011;25997;50.214;19.354;2023-11-21T15:50:16;17.80;;;13.10;;
40284;SDS011;25997;50.214;19.354;2023-11-21T15:53:19;23.58;;;17.85;;
40284;SDS011;25997;50.214;19.354;2023-11-21T15:56:22;19.25;;;13.05;;
40284;SDS011;25997;50.214;19.354;2023-11-21T15:59:26;22.30;;;17.17;;
40284;SDS011;25997;50.214;19.354;2023-11-21T16:02:31;17.33;;;13.50;;
40284;SDS011;25997;50.214;19.354;2023-11-21T16:05:34;21.70;;;16.52;;
40284;SDS011;25997;50.214;19.354;2023-11-21T16:08:37;22.70;;;16.95;;
40284;SDS011;25997;50.214;19.354;2023-11-21T16:11:39;23.00;;;18.95;;
40284;SDS011;25997;50.214;19.354;2023-11-21T16:14:43;21.35;;;17.35;;
40284;SDS011;25997;50.214;19.354;2023-11-21T16:17:47;31.50;;;24.00;;
40284;SDS011;25997;50.214;19.354;2023-11-21T16:20:50;62.05;;;48.03;;
40284;SDS011;25997;50.214;19.354;2023-11-21T16:23:52;31.30;;;24.73;;
40284;SDS011;25997;50.214;19.354;2023-11-21T16:26:55;60.33;;;50.15;;
40284;SDS011;25997;50.214;19.354;2023-11-21T16:30:00;29.60;;;23.48;;
40284;SDS011;25997;50.214;19.354;2023-11-21T16:33:06;22.70;;;18.20;;
40284;SDS011;25997;50.214;19.354;2023-11-21T16:36:08;30.63;;;21.73;;
40284;SDS011;25997;50.214;19.354;2023-11-21T16:39:11;37.97;;;27.17;;
40284;SDS011;25997;50.214;19.354;2023-11-21T16:42:14;31.85;;;25.35;;
40284;SDS011;25997;50.214;19.354;2023-11-21T16:45:18;24.80;;;19.55;;
40284;SDS011;25997;50.214;19.354;2023-11-21T16:48:21;25.58;;;20.67;;
40284;SDS011;25997;50.214;19.354;2023-11-21T16:51:23;29.13;;;22.10;;
40284;SDS011;25997;50.214;19.354;2023-11-21T16:54:26;199.02;;;119.20;;
40284;SDS011;25997;50.214;19.354;2023-11-21T16:57:29;174.50;;;110.45;;
40284;SDS011;25997;50.214;19.354;2023-11-21T17:00:33;62.83;;;46.28;;
40284;SDS011;25997;50.214;19.354;2023-11-21T17:03:35;31.27;;;27.20;;
40284;SDS011;25997;50.214;19.354;2023-11-21T17:06:39;29.45;;;23.33;;
40284;SDS011;25997;50.214;19.354;2023-11-21T17:09:42;28.05;;;24.38;;
40284;SDS011;25997;50.214;19.354;2023-11-21T17:12:44;24.75;;;21.98;;
40284;SDS011;25997;50.214;19.354;2023-11-21T17:15:48;23.40;;;20.88;;
40284;SDS011;25997;50.214;19.354;2023-11-21T17:18:51;30.70;;;26.55;;
40284;SDS011;25997;50.214;19.354;2023-11-21T17:21:54;34.05;;;28.33;;
40284;SDS011;25997;50.214;19.354;2023-11-21T17:24:58;47.38;;;35.95;;
40284;SDS011;25997;50.214;19.354;2023-11-21T17:28:02;41.97;;;34.38;;
40284;SDS011;25997;50.214;19.354;2023-11-21T17:31:06;28.45;;;24.83;;
40284;SDS011;25997;50.214;19.354;2023-11-21T17:34:09;41.65;;;33.15;;
40284;SDS011;25997;50.214;19.354;2023-11-21T17:37:12;23.50;;;19.45;;
40284;SDS011;25997;50.214;19.354;2023-11-21T17:40:16;13.20;;;11.00;;
40284;SDS011;25997;50.214;19.354;2023-11-21T17:43:20;16.38;;;11.93;;
40284;SDS011;25997;50.214;19.354;2023-11-21T17:46:24;11.63;;;8.88;;
40284;SDS011;25997;50.214;19.354;2023-11-21T17:49:27;12.05;;;9.40;;
40284;SDS011;25997;50.214;19.354;2023-11-21T17:52:29;11.52;;;9.35;;
40284;SDS011;25997;50.214;19.354;2023-11-21T17:55:33;12.00;;;9.48;;
40284;SDS011;25997;50.214;19.354;2023-11-21T17:58:36;12.20;;;9.18;;
40284;SDS011;25997;50.214;19.354;2023-11-21T18:01:40;18.58;;;13.18;;
40284;SDS011;25997;50.214;19.354;2023-11-21T18:04:43;16.40;;;11.15;;